sensor_id;sensor_type;location;lat;lon;timestamp;pressure;altitude;pressure_sealevel;temperature;humidity
78411;BME280;67706;51.074;-1.796;2023-08-08T00:00:26;101380.03;;;12.85;79.47
78411;BME280;67706;51.074;-1.796;2023-08-08T00:02:53;101375.06;;;12.73;80.03
78411;BME280;67706;51.074;-1.796;2023-08-08T00:05:20;101363.31;;;12.58;80.80
78411;BME280;67706;51.074;-1.796;2023-08-08T00:07:48;101366.13;;;12.65;80.88
78411;BME280;67706;51.074;-1.796;2023-08-08T00:10:14;101364.59;;;12.62;81.03
78411;BME280;67706;51.074;-1.796;2023-08-08T00:12:41;101367.94;;;12.58;80.82
78411;BME280;67706;51.074;-1.796;2023-08-08T00:15:08;101362.66;;;12.56;81.11
78411;BME280;67706;51.074;-1.796;2023-08-08T00:17:35;101365.50;;;12.48;81.60
78411;BME280;67706;51.074;-1.796;2023-08-08T00:20:02;101354.47;;;12.42;81.96
78411;BME280;67706;51.074;-1.796;2023-08-08T00:22:29;101358.84;;;12.36;82.43
78411;BME280;67706;51.074;-1.796;2023-08-08T00:24:57;101365.00;;;12.38;82.13
78411;BME280;67706;51.074;-1.796;2023-08-08T00:27:24;101362.91;;;12.40;81.97
78411;BME280;67706;51.074;-1.796;2023-08-08T00:29:50;101360.44;;;12.45;81.98
78411;BME280;67706;51.074;-1.796;2023-08-08T00:32:18;101362.84;;;12.34;82.43
78411;BME280;67706;51.074;-1.796;2023-08-08T00:34:45;101367.88;;;12.30;82.85
78411;BME280;67706;51.074;-1.796;2023-08-08T00:37:12;101369.06;;;12.21;83.32
78411;BME280;67706;51.074;-1.796;2023-08-08T00:39:38;101367.09;;;12.15;83.71
78411;BME280;67706;51.074;-1.796;2023-08-08T00:42:09;101360.94;;;12.13;83.85
78411;BME280;67706;51.074;-1.796;2023-08-08T00:44:35;101367.50;;;12.12;84.22
78411;BME280;67706;51.074;-1.796;2023-08-08T00:47:03;101364.66;;;12.06;84.65
78411;BME280;67706;51.074;-1.796;2023-08-08T00:49:30;101359.63;;;12.09;84.69
78411;BME280;67706;51.074;-1.796;2023-08-08T00:51:56;101362.66;;;12.14;84.16
78411;BME280;67706;51.074;-1.796;2023-08-08T00:54:23;101351.00;;;12.12;84.28
78411;BME280;67706;51.074;-1.796;2023-08-08T00:56:50;101341.44;;;12.08;84.38
78411;BME280;67706;51.074;-1.796;2023-08-08T00:59:19;101347.97;;;12.07;84.70
78411;BME280;67706;51.074;-1.796;2023-08-08T01:01:45;101347.84;;;12.15;84.47
78411;BME280;67706;51.074;-1.796;2023-08-08T01:04:12;101333.44;;;12.13;84.49
78411;BME280;67706;51.074;-1.796;2023-08-08T01:06:43;101333.28;;;12.21;84.28
78411;BME280;67706;51.074;-1.796;2023-08-08T01:09:21;101336.25;;;12.41;83.67
78411;BME280;67706;51.074;-1.796;2023-08-08T01:11:51;101329.06;;;12.40;83.20
78411;BME280;67706;51.074;-1.796;2023-08-08T01:14:21;101328.84;;;12.41;83.67
78411;BME280;67706;51.074;-1.796;2023-08-08T01:16:50;101324.38;;;12.40;83.70
78411;BME280;67706;51.074;-1.796;2023-08-08T01:19:23;101310.84;;;12.39;83.72
78411;BME280;67706;51.074;-1.796;2023-08-08T01:21:52;101308.41;;;12.50;82.96
78411;BME280;67706;51.074;-1.796;2023-08-08T01:24:22;101307.56;;;12.50;83.44
78411;BME280;67706;51.074;-1.796;2023-08-08T01:26:49;101304.59;;;12.51;82.86
78411;BME280;67706;51.074;-1.796;2023-08-08T01:29:16;101308.91;;;12.60;82.75
78411;BME280;67706;51.074;-1.796;2023-08-08T01:31:42;101307.72;;;12.48;83.20
78411;BME280;67706;51.074;-1.796;2023-08-08T01:34:10;101314.31;;;12.47;83.59
78411;BME280;67706;51.074;-1.796;2023-08-08T01:36:42;101304.31;;;12.46;83.65
78411;BME280;67706;51.074;-1.796;2023-08-08T01:39:17;101310.03;;;12.45;83.68
78411;BME280;67706;51.074;-1.796;2023-08-08T01:41:48;101302.44;;;12.47;83.60
78411;BME280;67706;51.074;-1.796;2023-08-08T01:44:16;101314.31;;;12.47;83.58
78411;BME280;67706;51.074;-1.796;2023-08-08T01:46:44;101305.91;;;12.55;83.51
78411;BME280;67706;51.074;-1.796;2023-08-08T01:49:11;101310.25;;;12.43;83.83
78411;BME280;67706;51.074;-1.796;2023-08-08T01:51:38;101308.22;;;12.31;84.28
78411;BME280;67706;51.074;-1.796;2023-08-08T01:54:05;101311.19;;;12.29;84.46
78411;BME280;67706;51.074;-1.796;2023-08-08T01:56:31;101309.88;;;12.25;85.09
78411;BME280;67706;51.074;-1.796;2023-08-08T01:58:59;101304.09;;;12.20;85.19
78411;BME280;67706;51.074;-1.796;2023-08-08T02:01:26;101300.94;;;12.23;85.58
78411;BME280;67706;51.074;-1.796;2023-08-08T02:03:53;101308.50;;;12.15;86.26
78411;BME280;67706;51.074;-1.796;2023-08-08T02:06:20;101297.94;;;12.18;86.11
78411;BME280;67706;51.074;-1.796;2023-08-08T02:08:46;101292.44;;;12.18;86.09
78411;BME280;67706;51.074;-1.796;2023-08-08T02:11:13;101288.13;;;12.09;86.37
78411;BME280;67706;51.074;-1.796;2023-08-08T02:13:40;101294.63;;;12.23;85.96
78411;BME280;67706;51.074;-1.796;2023-08-08T02:16:08;101296.78;;;12.27;85.81
78411;BME280;67706;51.074;-1.796;2023-08-08T02:18:34;101288.56;;;12.34;86.12
78411;BME280;67706;51.074;-1.796;2023-08-08T02:21:05;101291.66;;;12.24;85.98
78411;BME280;67706;51.074;-1.796;2023-08-08T02:23:32;101287.59;;;12.20;86.55
78411;BME280;67706;51.074;-1.796;2023-08-08T02:25:59;101291.78;;;12.37;85.21
78411;BME280;67706;51.074;-1.796;2023-08-08T02:28:25;101284.38;;;12.38;85.28
78411;BME280;67706;51.074;-1.796;2023-08-08T02:30:52;101278.03;;;12.16;86.22
78411;BME280;67706;51.074;-1.796;2023-08-08T02:33:21;101278.09;;;12.23;86.52
78411;BME280;67706;51.074;-1.796;2023-08-08T02:35:47;101275.53;;;12.21;86.37
78411;BME280;67706;51.074;-1.796;2023-08-08T02:38:14;101267.56;;;12.26;86.34
78411;BME280;67706;51.074;-1.796;2023-08-08T02:40:41;101272.78;;;12.21;86.34
78411;BME280;67706;51.074;-1.796;2023-08-08T02:43:07;101272.66;;;12.29;86.61
78411;BME280;67706;51.074;-1.796;2023-08-08T02:45:34;101263.56;;;12.29;86.51
78411;BME280;67706;51.074;-1.796;2023-08-08T02:48:01;101266.09;;;12.30;86.17
78411;BME280;67706;51.074;-1.796;2023-08-08T02:50:29;101270.41;;;12.39;86.05
78411;BME280;67706;51.074;-1.796;2023-08-08T02:52:56;101275.50;;;12.42;85.81
78411;BME280;67706;51.074;-1.796;2023-08-08T02:55:23;101278.03;;;12.37;86.35
78411;BME280;67706;51.074;-1.796;2023-08-08T02:57:49;101271.72;;;12.43;86.29
78411;BME280;67706;51.074;-1.796;2023-08-08T03:00:16;101267.41;;;12.34;86.16
78411;BME280;67706;51.074;-1.796;2023-08-08T03:02:43;101264.91;;;12.39;86.29
78411;BME280;67706;51.074;-1.796;2023-08-08T03:05:10;101268.75;;;12.45;86.14
78411;BME280;67706;51.074;-1.796;2023-08-08T03:07:38;101269.88;;;12.50;85.78
78411;BME280;67706;51.074;-1.796;2023-08-08T03:10:05;101262.72;;;12.56;85.94
78411;BME280;67706;51.074;-1.796;2023-08-08T03:12:32;101258.72;;;12.58;85.63
78411;BME280;67706;51.074;-1.796;2023-08-08T03:14:59;101263.75;;;12.55;86.08
78411;BME280;67706;51.074;-1.796;2023-08-08T03:17:25;101265.69;;;12.54;85.72
78411;BME280;67706;51.074;-1.796;2023-08-08T03:19:52;101263.97;;;12.53;85.93
78411;BME280;67706;51.074;-1.796;2023-08-08T03:22:19;101265.69;;;12.61;85.38
78411;BME280;67706;51.074;-1.796;2023-08-08T03:24:47;101263.69;;;12.48;86.01
78411;BME280;67706;51.074;-1.796;2023-08-08T03:27:13;101265.03;;;12.52;85.82
78411;BME280;67706;51.074;-1.796;2023-08-08T03:29:40;101265.22;;;12.51;86.39
78411;BME280;67706;51.074;-1.796;2023-08-08T03:32:07;101267.97;;;12.51;85.97
78411;BME280;67706;51.074;-1.796;2023-08-08T03:34:34;101276.28;;;12.57;85.67
78411;BME280;67706;51.074;-1.796;2023-08-08T03:37:00;101263.06;;;12.46;85.88
78411;BME280;67706;51.074;-1.796;2023-08-08T03:39:27;101279.19;;;12.49;86.25
78411;BME280;67706;51.074;-1.796;2023-08-08T03:41:55;101279.28;;;12.62;85.98
78411;BME280;67706;51.074;-1.796;2023-08-08T03:44:22;101275.47;;;12.63;85.85
78411;BME280;67706;51.074;-1.796;2023-08-08T03:46:48;101275.47;;;12.63;85.60
78411;BME280;67706;51.074;-1.796;2023-08-08T03:49:16;101266.81;;;12.66;86.20
78411;BME280;67706;51.074;-1.796;2023-08-08T03:51:42;101259.84;;;12.70;85.71
78411;BME280;67706;51.074;-1.796;2023-08-08T03:54:09;101253.53;;;12.76;85.73
78411;BME280;67706;51.074;-1.796;2023-08-08T03:56:36;101257.59;;;12.81;85.69
78411;BME280;67706;51.074;-1.796;2023-08-08T03:59:04;101252.97;;;12.88;85.56
78411;BME280;67706;51.074;-1.796;2023-08-08T04:01:31;101258.31;;;12.96;84.46
78411;BME280;67706;51.074;-1.796;2023-08-08T04:03:57;101260.47;;;13.00;84.36
78411;BME280;67706;51.074;-1.796;2023-08-08T04:06:24;101256.22;;;12.98;84.34
78411;BME280;67706;51.074;-1.796;2023-08-08T04:08:51;101254.91;;;12.94;84.21
78411;BME280;67706;51.074;-1.796;2023-08-08T04:11:17;101249.84;;;12.97;83.87
78411;BME280;67706;51.074;-1.796;2023-08-08T04:13:44;101258.31;;;12.96;84.11
78411;BME280;67706;51.074;-1.796;2023-08-08T04:16:12;101259.19;;;12.96;84.14
78411;BME280;67706;51.074;-1.796;2023-08-08T04:18:39;101252.38;;;12.99;84.55
78411;BME280;67706;51.074;-1.796;2023-08-08T04:21:06;101252.59;;;12.97;84.11
78411;BME280;67706;51.074;-1.796;2023-08-08T04:23:32;101252.22;;;13.00;84.42
78411;BME280;67706;51.074;-1.796;2023-08-08T04:25:59;101256.22;;;12.98;84.86
78411;BME280;67706;51.074;-1.796;2023-08-08T04:28:26;101255.41;;;13.04;84.41
78411;BME280;67706;51.074;-1.796;2023-08-08T04:30:52;101254.75;;;13.02;85.04
78411;BME280;67706;51.074;-1.796;2023-08-08T04:33:20;101246.13;;;13.05;85.33
78411;BME280;67706;51.074;-1.796;2023-08-08T04:35:47;101243.72;;;13.02;85.38
78411;BME280;67706;51.074;-1.796;2023-08-08T04:38:14;101254.81;;;13.08;85.33
78411;BME280;67706;51.074;-1.796;2023-08-08T04:40:41;101247.19;;;13.10;85.14
78411;BME280;67706;51.074;-1.796;2023-08-08T04:43:10;101240.19;;;13.08;85.55
78411;BME280;67706;51.074;-1.796;2023-08-08T04:45:37;101240.41;;;13.06;85.52
78411;BME280;67706;51.074;-1.796;2023-08-08T04:48:05;101246.28;;;13.03;85.25
78411;BME280;67706;51.074;-1.796;2023-08-08T04:50:33;101245.28;;;13.04;85.36
78411;BME280;67706;51.074;-1.796;2023-08-08T04:52:59;101244.44;;;13.10;84.84
78411;BME280;67706;51.074;-1.796;2023-08-08T04:55:26;101244.19;;;13.05;85.19
78411;BME280;67706;51.074;-1.796;2023-08-08T04:57:53;101237.53;;;12.93;85.97
78411;BME280;67706;51.074;-1.796;2023-08-08T05:00:19;101245.44;;;13.03;85.67
78411;BME280;67706;51.074;-1.796;2023-08-08T05:02:46;101242.94;;;13.08;85.20
78411;BME280;67706;51.074;-1.796;2023-08-08T05:05:13;101226.84;;;13.05;85.52
78411;BME280;67706;51.074;-1.796;2023-08-08T05:07:41;101218.31;;;13.00;86.31
78411;BME280;67706;51.074;-1.796;2023-08-08T05:10:08;101218.72;;;13.03;86.30
78411;BME280;67706;51.074;-1.796;2023-08-08T05:12:34;101215.44;;;13.14;85.15
78411;BME280;67706;51.074;-1.796;2023-08-08T05:15:01;101216.47;;;13.07;85.50
78411;BME280;67706;51.074;-1.796;2023-08-08T05:17:29;101211.19;;;13.12;85.14
78411;BME280;67706;51.074;-1.796;2023-08-08T05:19:56;101203.69;;;12.99;85.95
78411;BME280;67706;51.074;-1.796;2023-08-08T05:22:23;101204.97;;;13.03;86.19
78411;BME280;67706;51.074;-1.796;2023-08-08T05:24:51;101202.06;;;13.05;85.95
78411;BME280;67706;51.074;-1.796;2023-08-08T05:27:18;101196.56;;;13.11;86.77
78411;BME280;67706;51.074;-1.796;2023-08-08T05:29:45;101198.28;;;13.19;86.57
78411;BME280;67706;51.074;-1.796;2023-08-08T05:32:11;101211.47;;;13.23;86.02
78411;BME280;67706;51.074;-1.796;2023-08-08T05:34:38;101214.00;;;13.25;85.96
78411;BME280;67706;51.074;-1.796;2023-08-08T05:37:05;101210.84;;;13.28;86.22
78411;BME280;67706;51.074;-1.796;2023-08-08T05:39:31;101207.66;;;13.31;85.74
78411;BME280;67706;51.074;-1.796;2023-08-08T05:41:59;101214.25;;;13.36;85.87
78411;BME280;67706;51.074;-1.796;2023-08-08T05:44:26;101216.38;;;13.41;85.64
78411;BME280;67706;51.074;-1.796;2023-08-08T05:46:53;101212.78;;;13.34;86.60
78411;BME280;67706;51.074;-1.796;2023-08-08T05:49:19;101209.59;;;13.37;87.41
78411;BME280;67706;51.074;-1.796;2023-08-08T05:51:46;101208.53;;;13.38;87.28
78411;BME280;67706;51.074;-1.796;2023-08-08T05:54:13;101205.16;;;13.36;87.08
78411;BME280;67706;51.074;-1.796;2023-08-08T05:56:40;101197.94;;;13.41;86.88
78411;BME280;67706;51.074;-1.796;2023-08-08T05:59:08;101205.38;;;13.47;87.20
78411;BME280;67706;51.074;-1.796;2023-08-08T06:01:34;101205.16;;;13.49;87.22
78411;BME280;67706;51.074;-1.796;2023-08-08T06:04:01;101204.97;;;13.50;87.05
78411;BME280;67706;51.074;-1.796;2023-08-08T06:06:28;101211.16;;;13.59;86.93
78411;BME280;67706;51.074;-1.796;2023-08-08T06:08:55;101215.19;;;13.63;86.75
78411;BME280;67706;51.074;-1.796;2023-08-08T06:11:22;101216.66;;;13.59;87.03
78411;BME280;67706;51.074;-1.796;2023-08-08T06:13:49;101208.59;;;13.64;87.00
78411;BME280;67706;51.074;-1.796;2023-08-08T06:16:17;101206.28;;;13.74;86.95
78411;BME280;67706;51.074;-1.796;2023-08-08T06:18:43;101208.22;;;13.80;86.48
78411;BME280;67706;51.074;-1.796;2023-08-08T06:21:10;101206.53;;;13.86;86.92
78411;BME280;67706;51.074;-1.796;2023-08-08T06:23:37;101198.66;;;13.89;86.83
78411;BME280;67706;51.074;-1.796;2023-08-08T06:26:04;101197.41;;;13.92;86.71
78411;BME280;67706;51.074;-1.796;2023-08-08T06:28:31;101201.84;;;14.06;86.02
78411;BME280;67706;51.074;-1.796;2023-08-08T06:30:58;101197.63;;;14.10;85.47
78411;BME280;67706;51.074;-1.796;2023-08-08T06:33:26;101199.09;;;14.12;85.56
78411;BME280;67706;51.074;-1.796;2023-08-08T06:35:54;101201.63;;;14.14;86.73
78411;BME280;67706;51.074;-1.796;2023-08-08T06:38:20;101191.25;;;14.22;85.54
78411;BME280;67706;51.074;-1.796;2023-08-08T06:40:47;101191.09;;;14.30;85.94
78411;BME280;67706;51.074;-1.796;2023-08-08T06:43:14;101184.88;;;14.42;85.21
78411;BME280;67706;51.074;-1.796;2023-08-08T06:45:41;101186.16;;;14.46;84.97
78411;BME280;67706;51.074;-1.796;2023-08-08T06:48:08;101192.31;;;14.54;84.24
78411;BME280;67706;51.074;-1.796;2023-08-08T06:50:37;101195.47;;;14.64;84.12
78411;BME280;67706;51.074;-1.796;2023-08-08T06:53:04;101187.63;;;14.68;83.91
78411;BME280;67706;51.074;-1.796;2023-08-08T06:55:31;101191.44;;;14.67;84.42
78411;BME280;67706;51.074;-1.796;2023-08-08T06:57:58;101186.53;;;14.69;84.25
78411;BME280;67706;51.074;-1.796;2023-08-08T07:00:24;101191.81;;;14.77;83.90
78411;BME280;67706;51.074;-1.796;2023-08-08T07:02:52;101188.03;;;14.71;84.58
78411;BME280;67706;51.074;-1.796;2023-08-08T07:05:19;101190.38;;;14.74;84.76
78411;BME280;67706;51.074;-1.796;2023-08-08T07:07:49;101183.75;;;14.82;84.38
78411;BME280;67706;51.074;-1.796;2023-08-08T07:10:15;101181.22;;;14.74;84.87
78411;BME280;67706;51.074;-1.796;2023-08-08T07:12:42;101186.09;;;14.85;84.90
78411;BME280;67706;51.074;-1.796;2023-08-08T07:15:09;101175.03;;;14.85;84.58
78411;BME280;67706;51.074;-1.796;2023-08-08T07:17:36;101175.44;;;14.95;84.31
78411;BME280;67706;51.074;-1.796;2023-08-08T07:20:04;101174.94;;;15.11;83.52
78411;BME280;67706;51.074;-1.796;2023-08-08T07:22:31;101172.34;;;15.23;83.16
78411;BME280;67706;51.074;-1.796;2023-08-08T07:24:59;101158.22;;;15.37;82.50
78411;BME280;67706;51.074;-1.796;2023-08-08T07:27:27;101152.91;;;15.36;82.72
78411;BME280;67706;51.074;-1.796;2023-08-08T07:29:53;101149.19;;;15.55;82.75
78411;BME280;67706;51.074;-1.796;2023-08-08T07:32:20;101146.63;;;15.60;82.86
78411;BME280;67706;51.074;-1.796;2023-08-08T07:34:47;101145.97;;;15.64;82.85
78411;BME280;67706;51.074;-1.796;2023-08-08T07:37:14;101144.59;;;15.73;82.77
78411;BME280;67706;51.074;-1.796;2023-08-08T07:39:41;101148.03;;;15.69;82.36
78411;BME280;67706;51.074;-1.796;2023-08-08T07:42:09;101148.16;;;15.80;82.82
78411;BME280;67706;51.074;-1.796;2023-08-08T07:44:35;101155.19;;;15.83;82.85
78411;BME280;67706;51.074;-1.796;2023-08-08T07:47:04;101159.84;;;15.82;82.90
78411;BME280;67706;51.074;-1.796;2023-08-08T07:49:31;101153.47;;;15.82;83.34
78411;BME280;67706;51.074;-1.796;2023-08-08T07:51:57;101146.47;;;15.79;83.85
78411;BME280;67706;51.074;-1.796;2023-08-08T07:54:24;101144.25;;;15.88;83.57
78411;BME280;67706;51.074;-1.796;2023-08-08T07:56:51;101147.44;;;15.92;83.94
78411;BME280;67706;51.074;-1.796;2023-08-08T07:59:19;101145.94;;;15.96;84.11
78411;BME280;67706;51.074;-1.796;2023-08-08T08:01:45;101130.66;;;16.11;83.04
78411;BME280;67706;51.074;-1.796;2023-08-08T08:04:12;101129.75;;;16.17;83.19
78411;BME280;67706;51.074;-1.796;2023-08-08T08:06:39;101124.38;;;16.22;82.85
78411;BME280;67706;51.074;-1.796;2023-08-08T08:09:05;101124.81;;;16.19;82.73
78411;BME280;67706;51.074;-1.796;2023-08-08T08:11:33;101121.56;;;16.29;82.89
78411;BME280;67706;51.074;-1.796;2023-08-08T08:14:00;101127.72;;;16.31;83.00
78411;BME280;67706;51.074;-1.796;2023-08-08T08:16:28;101127.22;;;16.34;82.91
78411;BME280;67706;51.074;-1.796;2023-08-08T08:18:55;101124.09;;;16.48;82.17
78411;BME280;67706;51.074;-1.796;2023-08-08T08:21:21;101127.16;;;16.65;81.75
78411;BME280;67706;51.074;-1.796;2023-08-08T08:23:48;101132.84;;;16.70;81.39
78411;BME280;67706;51.074;-1.796;2023-08-08T08:26:16;101126.00;;;16.54;81.64
78411;BME280;67706;51.074;-1.796;2023-08-08T08:28:43;101126.22;;;16.53;82.34
78411;BME280;67706;51.074;-1.796;2023-08-08T08:31:09;101126.56;;;16.63;81.97
78411;BME280;67706;51.074;-1.796;2023-08-08T08:33:37;101126.38;;;16.58;82.34
78411;BME280;67706;51.074;-1.796;2023-08-08T08:36:04;101128.53;;;16.74;82.31
78411;BME280;67706;51.074;-1.796;2023-08-08T08:38:31;101125.63;;;16.69;81.89
78411;BME280;67706;51.074;-1.796;2023-08-08T08:40:58;101121.22;;;16.61;82.26
78411;BME280;67706;51.074;-1.796;2023-08-08T08:43:25;101122.53;;;16.59;82.97
78411;BME280;67706;51.074;-1.796;2023-08-08T08:45:52;101115.75;;;16.55;83.33
78411;BME280;67706;51.074;-1.796;2023-08-08T08:48:20;101122.31;;;16.60;83.16
78411;BME280;67706;51.074;-1.796;2023-08-08T08:50:49;101116.91;;;16.65;82.80
78411;BME280;67706;51.074;-1.796;2023-08-08T08:53:16;101115.47;;;16.63;83.28
78411;BME280;67706;51.074;-1.796;2023-08-08T08:55:44;101116.09;;;16.65;83.17
78411;BME280;67706;51.074;-1.796;2023-08-08T08:58:13;101108.47;;;16.60;83.27
78411;BME280;67706;51.074;-1.796;2023-08-08T09:00:40;101117.94;;;16.71;82.88
78411;BME280;67706;51.074;-1.796;2023-08-08T09:03:08;101102.81;;;16.85;81.70
78411;BME280;67706;51.074;-1.796;2023-08-08T09:05:35;101105.75;;;16.90;81.26
78411;BME280;67706;51.074;-1.796;2023-08-08T09:08:04;101109.56;;;17.07;80.36
78411;BME280;67706;51.074;-1.796;2023-08-08T09:10:31;101104.00;;;17.07;80.39
78411;BME280;67706;51.074;-1.796;2023-08-08T09:13:00;101109.34;;;17.09;80.49
78411;BME280;67706;51.074;-1.796;2023-08-08T09:15:30;101108.66;;;17.13;80.03
78411;BME280;67706;51.074;-1.796;2023-08-08T09:17:57;101105.47;;;17.10;80.68
78411;BME280;67706;51.074;-1.796;2023-08-08T09:20:25;101100.97;;;16.97;80.52
78411;BME280;67706;51.074;-1.796;2023-08-08T09:22:53;101095.41;;;16.97;80.46
78411;BME280;67706;51.074;-1.796;2023-08-08T09:25:22;101097.13;;;16.98;81.43
78411;BME280;67706;51.074;-1.796;2023-08-08T09:27:49;101088.41;;;17.13;81.10
78411;BME280;67706;51.074;-1.796;2023-08-08T09:30:17;101087.22;;;17.20;80.66
78411;BME280;67706;51.074;-1.796;2023-08-08T09:32:43;101096.38;;;17.21;80.91
78411;BME280;67706;51.074;-1.796;2023-08-08T09:35:10;101103.09;;;17.13;80.94
78411;BME280;67706;51.074;-1.796;2023-08-08T09:37:37;101101.84;;;17.09;81.45
78411;BME280;67706;51.074;-1.796;2023-08-08T09:40:06;101097.69;;;17.18;81.38
78411;BME280;67706;51.074;-1.796;2023-08-08T09:42:35;101085.56;;;17.01;82.21
78411;BME280;67706;51.074;-1.796;2023-08-08T09:45:02;101081.44;;;16.92;82.21
78411;BME280;67706;51.074;-1.796;2023-08-08T09:47:28;101075.41;;;16.95;82.19
78411;BME280;67706;51.074;-1.796;2023-08-08T09:49:58;101077.56;;;16.93;82.43
78411;BME280;67706;51.074;-1.796;2023-08-08T09:52:26;101078.06;;;16.90;82.86
78411;BME280;67706;51.074;-1.796;2023-08-08T09:54:54;101070.97;;;16.94;82.92
78411;BME280;67706;51.074;-1.796;2023-08-08T09:57:22;101064.56;;;16.94;82.86
78411;BME280;67706;51.074;-1.796;2023-08-08T09:59:51;101066.47;;;16.93;82.89
78411;BME280;67706;51.074;-1.796;2023-08-08T10:02:18;101072.38;;;16.97;82.32
78411;BME280;67706;51.074;-1.796;2023-08-08T10:04:45;101073.00;;;16.99;82.39
78411;BME280;67706;51.074;-1.796;2023-08-08T10:07:12;101077.56;;;16.93;82.76
78411;BME280;67706;51.074;-1.796;2023-08-08T10:09:40;101057.78;;;16.90;81.80
78411;BME280;67706;51.074;-1.796;2023-08-08T10:12:08;101056.78;;;16.84;81.55
78411;BME280;67706;51.074;-1.796;2023-08-08T10:14:36;101064.41;;;16.89;82.10
78411;BME280;67706;51.074;-1.796;2023-08-08T10:17:06;101056.00;;;16.95;82.03
78411;BME280;67706;51.074;-1.796;2023-08-08T10:19:33;101060.75;;;17.06;81.17
78411;BME280;67706;51.074;-1.796;2023-08-08T10:22:03;101056.06;;;17.07;81.44
78411;BME280;67706;51.074;-1.796;2023-08-08T10:24:33;101057.91;;;17.24;80.52
78411;BME280;67706;51.074;-1.796;2023-08-08T10:27:01;101051.69;;;17.29;80.87
78411;BME280;67706;51.074;-1.796;2023-08-08T10:29:31;101057.72;;;17.37;80.30
78411;BME280;67706;51.074;-1.796;2023-08-08T10:31:59;101058.19;;;17.34;79.86
78411;BME280;67706;51.074;-1.796;2023-08-08T10:34:39;101054.69;;;17.27;80.39
78411;BME280;67706;51.074;-1.796;2023-08-08T10:37:09;101055.63;;;17.21;80.87
78411;BME280;67706;51.074;-1.796;2023-08-08T10:39:36;101048.03;;;17.17;81.38
78411;BME280;67706;51.074;-1.796;2023-08-08T10:42:04;101054.63;;;17.16;81.65
78411;BME280;67706;51.074;-1.796;2023-08-08T10:44:31;101056.81;;;17.14;82.10
78411;BME280;67706;51.074;-1.796;2023-08-08T10:46:59;101045.97;;;17.12;81.99
78411;BME280;67706;51.074;-1.796;2023-08-08T10:49:26;101042.94;;;17.14;82.31
78411;BME280;67706;51.074;-1.796;2023-08-08T10:52:03;101043.44;;;17.11;82.61
78411;BME280;67706;51.074;-1.796;2023-08-08T10:54:31;101053.47;;;17.23;82.85
78411;BME280;67706;51.074;-1.796;2023-08-08T10:56:59;101033.72;;;17.31;82.38
78411;BME280;67706;51.074;-1.796;2023-08-08T10:59:27;101036.16;;;17.39;81.68
78411;BME280;67706;51.074;-1.796;2023-08-08T11:01:56;101031.66;;;17.27;81.93
78411;BME280;67706;51.074;-1.796;2023-08-08T11:04:23;101033.22;;;17.34;82.46
78411;BME280;67706;51.074;-1.796;2023-08-08T11:06:54;101036.66;;;17.48;81.82
78411;BME280;67706;51.074;-1.796;2023-08-08T11:09:21;101040.63;;;17.40;81.59
78411;BME280;67706;51.074;-1.796;2023-08-08T11:11:49;101043.06;;;17.48;81.76
78411;BME280;67706;51.074;-1.796;2023-08-08T11:14:17;101042.41;;;17.35;82.33
78411;BME280;67706;51.074;-1.796;2023-08-08T11:16:44;101042.75;;;17.27;83.16
78411;BME280;67706;51.074;-1.796;2023-08-08T11:19:12;101046.03;;;17.35;83.21
78411;BME280;67706;51.074;-1.796;2023-08-08T11:21:41;101049.25;;;17.32;83.72
78411;BME280;67706;51.074;-1.796;2023-08-08T11:24:10;101054.63;;;17.16;84.59
78411;BME280;67706;51.074;-1.796;2023-08-08T11:26:39;101055.72;;;17.15;84.88
78411;BME280;67706;51.074;-1.796;2023-08-08T11:29:06;101066.22;;;16.95;85.68
78411;BME280;67706;51.074;-1.796;2023-08-08T11:31:34;101067.41;;;16.87;86.64
78411;BME280;67706;51.074;-1.796;2023-08-08T11:34:02;101041.78;;;16.74;87.59
78411;BME280;67706;51.074;-1.796;2023-08-08T11:36:29;101047.78;;;16.89;87.84
78411;BME280;67706;51.074;-1.796;2023-08-08T11:38:57;101033.50;;;17.03;87.42
78411;BME280;67706;51.074;-1.796;2023-08-08T11:41:26;101037.13;;;17.04;87.03
78411;BME280;67706;51.074;-1.796;2023-08-08T11:43:53;101043.19;;;17.12;87.01
78411;BME280;67706;51.074;-1.796;2023-08-08T11:46:23;101045.63;;;17.20;86.75
78411;BME280;67706;51.074;-1.796;2023-08-08T11:48:50;101041.97;;;17.08;87.12
78411;BME280;67706;51.074;-1.796;2023-08-08T11:51:16;101031.63;;;17.15;87.55
78411;BME280;67706;51.074;-1.796;2023-08-08T11:53:50;101033.81;;;17.13;87.93
78411;BME280;67706;51.074;-1.796;2023-08-08T11:56:19;101030.88;;;17.08;88.29
78411;BME280;67706;51.074;-1.796;2023-08-08T11:58:49;101025.97;;;17.22;90.58
78411;BME280;67706;51.074;-1.796;2023-08-08T12:01:19;101025.50;;;17.25;92.28
78411;BME280;67706;51.074;-1.796;2023-08-08T12:03:46;101023.94;;;17.17;91.80
78411;BME280;67706;51.074;-1.796;2023-08-08T12:06:12;101028.78;;;17.33;92.96
78411;BME280;67706;51.074;-1.796;2023-08-08T12:08:41;101021.53;;;17.32;92.18
78411;BME280;67706;51.074;-1.796;2023-08-08T12:11:08;101017.53;;;17.28;91.48
78411;BME280;67706;51.074;-1.796;2023-08-08T12:13:37;101027.66;;;17.23;90.43
78411;BME280;67706;51.074;-1.796;2023-08-08T12:16:06;101020.81;;;17.25;90.72
78411;BME280;67706;51.074;-1.796;2023-08-08T12:18:33;101028.44;;;17.41;90.49
78411;BME280;67706;51.074;-1.796;2023-08-08T12:21:00;101022.56;;;17.50;90.17
78411;BME280;67706;51.074;-1.796;2023-08-08T12:23:27;101021.84;;;17.54;90.32
78411;BME280;67706;51.074;-1.796;2023-08-08T12:25:54;101019.44;;;17.58;89.62
78411;BME280;67706;51.074;-1.796;2023-08-08T12:28:21;101016.06;;;17.56;88.14
78411;BME280;67706;51.074;-1.796;2023-08-08T12:30:47;101018.22;;;17.54;88.62
78411;BME280;67706;51.074;-1.796;2023-08-08T12:33:15;101014.09;;;17.44;88.47
78411;BME280;67706;51.074;-1.796;2023-08-08T12:35:42;101000.84;;;17.46;88.55
78411;BME280;67706;51.074;-1.796;2023-08-08T12:38:09;101002.34;;;17.61;89.85
78411;BME280;67706;51.074;-1.796;2023-08-08T12:40:36;101008.88;;;17.78;88.48